Time;durP1;ratioP1;P1;durP2;ratioP2;P2;SDS_P1;SDS_P2;PMS_P1;PMS_P2;Temp;Humidity;BMP_temperature;BMP_pressure;BME280_temperature;BME280_humidity;BME280_pressure;Samples;Min_cycle;Max_cycle;Signal;HPM_P1;HPM_P2
2022/01/28 00:05:22;;;;;;;8.90;2.07;;;1.50;96.30;;;;;;4979664;28;20465;-81
2022/01/28 00:07:50;;;;;;;4.40;1.40;;;1.50;96.30;;;;;;4978100;28;20417;-81
2022/01/28 00:10:17;;;;;;;3.60;1.43;;;1.50;96.30;;;;;;4984064;28;20452;-82
2022/01/28 00:13:08;;;;;;;8.40;1.60;;;1.50;96.30;;;;;;4998547;28;20435;-81
2022/01/28 00:15:42;;;;;;;4.17;1.27;;;1.50;96.30;;;;;;4997160;28;20559;-81
2022/01/28 00:21:03;;;;;;;4.10;0.90;;;1.50;96.30;;;;;;4999466;28;20827;-79
2022/01/28 00:39:46;;;;;;;1.97;0.70;;;1.40;96.30;;;;;;4999304;28;20991;-80
2022/01/28 00:42:11;;;;;;;1.40;0.60;;;1.40;96.30;;;;;;4998366;28;20464;-80
2022/01/28 00:44:37;;;;;;;3.73;0.97;;;1.40;96.30;;;;;;4997451;28;20252;-81
2022/01/28 00:47:03;;;;;;;6.73;1.10;;;1.30;96.30;;;;;;4997979;28;20195;-81
2022/01/28 00:49:29;;;;;;;5.87;1.27;;;1.40;96.30;;;;;;4998355;28;20173;-80
2022/01/28 00:51:55;;;;;;;3.27;0.83;;;1.40;96.30;;;;;;4996747;28;20452;-80
2022/01/28 00:54:20;;;;;;;4.73;0.90;;;1.30;96.30;;;;;;4997713;28;20242;-80
2022/01/28 00:56:47;;;;;;;4.30;0.90;;;1.20;96.30;;;;;;4997603;28;20642;-80
2022/01/28 00:59:13;;;;;;;1.40;0.60;;;1.20;96.30;;;;;;4997762;28;20181;-81
2022/01/28 05:02:54;;;;;;;6.23;1.50;;;1.10;96.30;;;;;;4933133;29;20525;-77
2022/01/28 05:29:11;;;;;;;9.60;2.17;;;1.00;96.30;;;;;;5688202;23;21046;-76
2022/01/28 05:31:37;;;;;;;7.60;1.23;;;0.90;96.30;;;;;;4992984;28;20449;-76
2022/01/28 05:34:02;;;;;;;6.53;2.23;;;0.90;96.30;;;;;;4994080;28;20174;-74
2022/01/28 05:36:28;;;;;;;6.87;1.83;;;0.90;96.30;;;;;;4993769;28;20188;-75
2022/01/28 05:38:53;;;;;;;6.03;1.30;;;1.00;96.30;;;;;;4993067;28;20650;-75
2022/01/28 05:41:19;;;;;;;10.77;1.43;;;1.00;96.30;;;;;;4984500;28;20205;-75
2022/01/28 05:43:44;;;;;;;11.17;1.87;;;1.00;96.30;;;;;;4974294;28;20174;-74
2022/01/28 05:46:10;;;;;;;9.33;2.00;;;1.00;96.30;;;;;;4974208;28;20177;-75
2022/01/28 05:48:36;;;;;;;5.70;1.33;;;0.90;96.30;;;;;;4973353;28;20182;-75
2022/01/28 05:51:01;;;;;;;14.23;2.20;;;0.90;96.30;;;;;;4974591;28;20198;-76
2022/01/28 05:53:27;;;;;;;3.83;1.10;;;0.90;96.30;;;;;;4974575;28;20174;-74
2022/01/28 05:55:52;;;;;;;9.10;1.13;;;0.90;96.30;;;;;;4973986;28;20178;-75
2022/01/28 05:58:19;;;;;;;6.40;1.70;;;0.80;96.30;;;;;;4973279;28;20182;-75
2022/01/28 06:00:44;;;;;;;15.43;1.60;;;0.80;96.30;;;;;;4974416;28;20186;-77
2022/01/28 06:03:10;;;;;;;3.77;1.30;;;0.70;96.30;;;;;;4972852;28;20414;-78
2022/01/28 06:05:35;;;;;;;7.37;1.73;;;0.70;96.30;;;;;;4973982;28;20170;-75
2022/01/28 06:08:01;;;;;;;3.60;1.93;;;0.70;96.30;;;;;;4973108;28;20177;-76
2022/01/28 06:10:27;;;;;;;8.20;1.17;;;0.60;96.30;;;;;;4974190;28;20233;-76
2022/01/28 06:12:53;;;;;;;11.13;1.93;;;0.50;96.30;;;;;;4984812;28;20220;-75
2022/01/28 06:15:19;;;;;;;2.50;1.03;;;0.50;96.30;;;;;;4973579;28;20281;-75
2022/01/28 06:17:44;;;;;;;10.27;1.93;;;0.50;96.30;;;;;;4974106;28;20458;-77
2022/01/28 06:20:14;;;;;;;9.17;1.67;;;0.50;96.30;;;;;;4974637;28;20232;-76
2022/01/28 06:22:43;;;;;;;6.10;1.30;;;0.50;96.30;;;;;;4991398;28;20202;-75
2022/01/28 06:25:13;;;;;;;7.50;1.70;;;0.60;96.30;;;;;;4973992;28;20499;-75
2022/01/28 06:27:39;;;;;;;6.00;1.80;;;0.60;96.30;;;;;;4977012;28;21143;-75
2022/01/28 06:30:05;;;;;;;14.53;1.50;;;0.60;96.30;;;;;;4985058;28;20447;-75
2022/01/28 06:32:32;;;;;;;4.33;1.20;;;0.60;96.30;;;;;;4972097;28;20317;-76
2022/01/28 06:35:00;;;;;;;10.20;1.87;;;0.70;96.30;;;;;;4994193;28;20444;-75
2022/01/28 06:37:26;;;;;;;12.03;1.20;;;0.60;96.30;;;;;;5001980;28;20432;-75
2022/01/28 06:39:51;;;;;;;9.53;1.90;;;0.60;96.30;;;;;;4992050;28;20419;-76
2022/01/28 06:42:17;;;;;;;5.73;1.70;;;0.70;96.30;;;;;;4993551;28;20821;-75
2022/01/28 06:44:43;;;;;;;4.33;1.80;;;0.70;96.30;;;;;;4974686;28;20170;-75
2022/01/28 06:47:11;;;;;;;2.40;1.13;;;0.70;96.30;;;;;;4989322;28;20181;-75
2022/01/28 06:49:39;;;;;;;6.50;1.20;;;0.70;96.30;;;;;;4993069;28;20408;-75
2022/01/28 06:52:06;;;;;;;12.27;1.70;;;0.60;96.30;;;;;;4984849;28;20499;-75
2022/01/28 06:54:32;;;;;;;8.60;1.47;;;0.60;96.30;;;;;;4986459;28;20413;-76
2022/01/28 06:56:58;;;;;;;4.57;1.40;;;0.50;96.30;;;;;;4972757;28;20500;-75
2022/01/28 06:59:23;;;;;;;5.40;1.03;;;0.50;96.30;;;;;;4986165;28;20516;-75
2022/01/28 07:01:49;;;;;;;3.03;1.30;;;0.50;96.30;;;;;;4973326;28;20289;-75
2022/01/28 07:04:15;;;;;;;4.33;1.17;;;0.50;96.30;;;;;;4985663;28;20177;-77
2022/01/28 07:06:40;;;;;;;8.00;1.73;;;0.50;96.30;;;;;;4973892;28;20174;-75
2022/01/28 07:09:07;;;;;;;2.33;0.83;;;0.50;96.30;;;;;;4974694;28;20192;-76
2022/01/28 07:11:33;;;;;;;2.37;1.07;;;0.50;96.30;;;;;;5002307;28;20666;-76
2022/01/28 07:13:58;;;;;;;2.30;1.13;;;0.50;96.30;;;;;;4973486;28;20413;-77
2022/01/28 07:16:24;;;;;;;3.13;1.10;;;0.40;96.30;;;;;;4991561;28;20180;-75
2022/01/28 07:18:49;;;;;;;4.60;1.17;;;0.40;96.30;;;;;;5007725;28;20192;-75
2022/01/28 07:21:15;;;;;;;4.83;2.00;;;;;;;;;;4985461;28;20828;-77
2022/01/28 07:23:41;;;;;;;4.40;1.07;;;0.30;96.30;;;;;;4987036;28;20173;-77
2022/01/28 07:26:06;;;;;;;5.27;1.00;;;0.30;96.30;;;;;;4999182;28;20475;-76
2022/01/28 07:28:34;;;;;;;9.13;1.77;;;0.30;96.30;;;;;;4986754;28;20541;-76
2022/01/28 07:30:59;;;;;;;5.60;1.50;;;0.30;96.30;;;;;;4972028;28;20608;-75
2022/01/28 07:33:25;;;;;;;5.83;1.20;;;0.30;96.30;;;;;;4983107;28;20512;-75
2022/01/28 07:35:50;;;;;;;5.73;1.83;;;0.30;96.30;;;;;;5001984;28;20178;-77
2022/01/28 07:38:16;;;;;;;6.10;1.63;;;0.30;96.30;;;;;;4971905;28;20209;-75
2022/01/28 07:40:41;;;;;;;8.33;1.60;;;0.20;96.30;;;;;;4993733;28;20276;-76
2022/01/28 07:43:07;;;;;;;7.57;2.30;;;0.30;96.30;;;;;;4989719;28;20896;-76
2022/01/28 07:45:32;;;;;;;6.20;1.60;;;0.30;96.30;;;;;;4987927;28;20177;-76
2022/01/28 07:47:58;;;;;;;8.83;1.30;;;0.30;96.30;;;;;;4987082;28;20649;-75
2022/01/28 07:50:23;;;;;;;10.73;1.77;;;0.30;96.30;;;;;;4989383;28;20170;-76
2022/01/28 07:52:51;;;;;;;5.53;1.23;;;0.40;96.30;;;;;;5007900;28;20809;-76
2022/01/28 07:55:16;;;;;;;6.50;1.30;;;0.50;96.30;;;;;;4986131;28;20193;-75
2022/01/28 07:57:43;;;;;;;6.47;1.50;;;0.50;96.30;;;;;;4985407;28;20933;-78
2022/01/28 08:00:11;;;;;;;13.83;1.50;;;0.50;96.30;;;;;;4991708;28;20235;-76
2022/01/28 08:02:36;;;;;;;8.00;1.57;;;0.50;96.30;;;;;;4978610;28;21544;-79
2022/01/28 08:05:02;;;;;;;11.27;1.90;;;0.50;96.30;;;;;;4991668;28;20410;-78
2022/01/28 08:07:28;;;;;;;7.17;1.93;;;0.50;96.30;;;;;;4975095;28;20671;-77
2022/01/28 08:09:53;;;;;;;3.87;1.40;;;0.60;96.30;;;;;;5006244;28;20439;-76
2022/01/28 08:12:19;;;;;;;7.43;1.63;;;0.60;96.30;;;;;;4989513;28;20209;-77
2022/01/28 08:14:45;;;;;;;6.87;1.70;;;0.60;96.30;;;;;;4982225;28;20181;-77
2022/01/28 08:17:13;;;;;;;20.07;2.13;;;0.60;96.30;;;;;;4994390;28;20264;-77
2022/01/28 08:19:39;;;;;;;5.10;1.30;;;0.60;96.30;;;;;;4981733;28;20201;-77
2022/01/28 08:22:05;;;;;;;9.37;1.67;;;0.60;96.30;;;;;;4994653;28;20999;-76
2022/01/28 08:24:30;;;;;;;6.83;1.57;;;0.60;96.30;;;;;;4995376;28;20166;-78
2022/01/28 08:26:56;;;;;;;9.97;2.70;;;0.50;96.30;;;;;;4998923;28;20418;-76
2022/01/28 08:29:22;;;;;;;7.60;2.20;;;0.50;96.30;;;;;;4978725;28;20292;-78
2022/01/28 08:31:48;;;;;;;5.33;1.40;;;0.50;96.30;;;;;;5006205;28;20205;-76
2022/01/28 08:34:13;;;;;;;9.47;2.30;;;0.50;96.30;;;;;;5012408;28;20924;-76
2022/01/28 08:36:39;;;;;;;11.30;2.67;;;0.50;96.30;;;;;;4986517;28;20645;-76
2022/01/28 08:39:06;;;;;;;4.37;1.67;;;0.60;96.30;;;;;;4982870;28;20179;-76
2022/01/28 08:41:34;;;;;;;10.70;2.33;;;0.70;96.30;;;;;;4975628;28;20682;-76
2022/01/28 08:44:00;;;;;;;8.63;1.73;;;0.70;96.30;;;;;;4975796;28;20423;-77
2022/01/28 08:46:25;;;;;;;8.77;1.87;;;0.70;96.30;;;;;;4986226;28;20941;-78
2022/01/28 08:48:51;;;;;;;12.13;1.97;;;0.70;96.30;;;;;;4976572;28;20194;-76
2022/01/28 08:51:16;;;;;;;6.70;1.83;;;0.80;96.30;;;;;;5007277;28;20205;-76
2022/01/28 08:53:42;;;;;;;8.20;1.63;;;0.80;96.30;;;;;;4991197;28;20508;-76
2022/01/28 08:56:08;;;;;;;15.70;2.87;;;0.80;96.30;;;;;;4996443;28;20173;-78
2022/01/28 08:58:35;;;;;;;4.03;1.40;;;0.70;96.30;;;;;;4975446;28;20185;-76
2022/01/28 09:01:01;;;;;;;4.20;1.60;;;0.70;96.30;;;;;;4979869;28;20437;-77
2022/01/28 09:03:26;;;;;;;4.43;1.70;;;0.70;96.30;;;;;;4993673;28;20488;-78
2022/01/28 09:05:52;;;;;;;6.60;1.57;;;0.70;96.30;;;;;;4974393;28;20170;-77
2022/01/28 09:08:18;;;;;;;10.97;1.90;;;0.80;96.30;;;;;;4990192;28;20170;-76
2022/01/28 09:10:57;;;;;;;8.33;1.37;;;0.70;96.30;;;;;;4991294;28;20631;-77
2022/01/28 09:13:26;;;;;;;6.27;1.57;;;0.70;96.30;;;;;;4984651;28;20201;-78
2022/01/28 09:15:54;;;;;;;4.93;1.57;;;0.80;96.30;;;;;;4977918;28;20405;-77
2022/01/28 09:18:21;;;;;;;10.47;1.77;;;0.80;96.30;;;;;;4975810;28;20425;-77
2022/01/28 09:20:47;;;;;;;8.27;2.37;;;0.90;96.30;;;;;;5007785;28;20821;-79
2022/01/28 09:23:14;;;;;;;8.83;1.27;;;0.90;96.30;;;;;;4976726;28;20433;-79
2022/01/28 09:25:39;;;;;;;8.10;2.33;;;0.80;96.30;;;;;;4993415;28;20416;-77
2022/01/28 09:28:05;;;;;;;13.33;2.07;;;0.80;96.30;;;;;;5009501;28;20935;-79
2022/01/28 09:30:32;;;;;;;11.80;2.70;;;0.80;96.30;;;;;;4988331;28;20592;-80
2022/01/28 09:32:58;;;;;;;6.30;1.63;;;0.80;96.30;;;;;;4992807;28;20925;-78
2022/01/28 09:35:24;;;;;;;9.83;2.47;;;0.80;96.30;;;;;;4988370;28;20424;-77
2022/01/28 09:37:52;;;;;;;10.00;1.90;;;0.80;96.30;;;;;;5002264;28;20766;-77
2022/01/28 09:40:18;;;;;;;6.33;1.43;;;0.70;96.30;;;;;;4995954;28;21000;-77
2022/01/28 09:42:46;;;;;;;5.90;1.30;;;0.80;96.30;;;;;;4995468;28;20487;-77
2022/01/28 09:45:20;;;;;;;11.43;2.53;;;0.80;96.30;;;;;;4978364;28;20432;-77
2022/01/28 09:47:46;;;;;;;9.47;2.03;;;0.80;96.30;;;;;;4987517;28;20956;-76
2022/01/28 09:50:13;;;;;;;9.00;2.30;;;0.80;96.30;;;;;;4997515;28;20467;-77
2022/01/28 09:52:39;;;;;;;10.80;2.00;;;0.80;96.30;;;;;;4984059;28;21827;-76
2022/01/28 09:55:05;;;;;;;14.03;2.13;;;0.80;96.30;;;;;;4999005;28;20412;-75
2022/01/28 09:57:32;;;;;;;10.27;1.70;;;0.80;96.30;;;;;;4984381;28;20182;-75
2022/01/28 09:59:58;;;;;;;10.07;1.97;;;0.80;96.30;;;;;;4975063;28;20420;-74
2022/01/28 10:02:51;;;;;;;6.77;1.93;;;0.80;96.30;;;;;;4993615;28;20460;-73
2022/01/28 10:05:28;;;;;;;8.80;2.13;;;0.90;96.30;;;;;;4973879;28;20433;-73
2022/01/28 10:08:11;;;;;;;8.67;2.07;;;0.80;96.30;;;;;;4969640;28;20412;-72
2022/01/28 10:11:03;;;;;;;10.00;1.80;;;0.90;96.30;;;;;;4978227;28;20433;-72
2022/01/28 10:13:46;;;;;;;11.97;3.27;;;0.90;96.30;;;;;;4992909;28;20421;-72
2022/01/28 10:16:22;;;;;;;19.33;2.67;;;0.90;96.30;;;;;;4992250;28;20845;-71
2022/01/28 10:18:54;;;;;;;18.10;2.63;;;1.00;96.30;;;;;;4992225;28;20424;-72
2022/01/28 10:21:24;;;;;;;6.60;1.47;;;0.90;96.30;;;;;;4992094;28;20464;-72
2022/01/28 10:24:10;;;;;;;13.00;2.60;;;0.90;96.30;;;;;;4993468;28;20408;-71
2022/01/28 10:27:06;;;;;;;13.13;2.20;;;0.90;96.30;;;;;;4991813;28;20503;-72
2022/01/28 10:29:36;;;;;;;4.27;1.40;;;0.90;96.30;;;;;;4993089;28;20447;-72
2022/01/28 10:32:09;;;;;;;6.13;1.70;;;1.00;96.30;;;;;;4991443;28;20449;-72
2022/01/28 10:34:39;;;;;;;18.53;2.70;;;1.00;96.30;;;;;;4992988;28;20408;-72
2022/01/28 10:37:20;;;;;;;14.67;2.10;;;0.90;96.30;;;;;;4973938;28;20421;-72
2022/01/28 10:39:53;;;;;;;8.30;1.60;;;1.00;96.30;;;;;;4978463;28;20429;-72
2022/01/28 10:42:37;;;;;;;10.10;2.30;;;1.10;96.30;;;;;;4975382;28;20465;-71
2022/01/28 10:45:16;;;;;;;14.17;2.63;;;1.10;96.30;;;;;;4986869;28;20985;-71
2022/01/28 10:47:43;;;;;;;5.83;1.53;;;1.10;96.30;;;;;;5012416;28;20392;-74
2022/01/28 10:50:32;;;;;;;12.23;2.30;;;1.10;96.30;;;;;;5011001;28;20451;-72
2022/01/28 10:53:10;;;;;;;10.50;1.97;;;1.10;96.30;;;;;;4995623;28;20532;-72
2022/01/28 10:55:37;;;;;;;9.80;2.70;;;1.00;96.30;;;;;;4973640;28;20856;-75
2022/01/28 10:58:07;;;;;;;11.40;2.10;;;1.00;96.30;;;;;;4972208;28;20444;-73
2022/01/28 11:00:35;;;;;;;15.73;4.43;;;1.00;96.30;;;;;;4973232;28;20436;-73
2022/01/28 11:03:04;;;;;;;12.50;2.03;;;0.90;96.30;;;;;;4973352;28;20450;-73
2022/01/28 11:05:32;;;;;;;10.33;1.67;;;0.90;96.30;;;;;;4990140;28;20983;-71
2022/01/28 11:07:59;;;;;;;9.33;1.97;;;0.80;96.30;;;;;;4991609;28;20471;-71
2022/01/28 11:10:25;;;;;;;12.83;1.80;;;0.70;96.30;;;;;;4988303;28;20422;-70
2022/01/28 11:12:52;;;;;;;10.30;1.43;;;0.60;96.30;;;;;;4971516;28;20489;-71
2022/01/28 11:15:18;;;;;;;4.53;1.40;;;0.60;96.30;;;;;;4970620;28;20417;-71
2022/01/28 11:17:43;;;;;;;8.30;1.70;;;0.60;96.30;;;;;;4970480;28;20423;-71
2022/01/28 11:20:11;;;;;;;6.30;1.77;;;0.40;96.30;;;;;;4985625;28;20425;-71
2022/01/28 11:22:56;;;;;;;2.30;1.27;;;0.30;96.30;;;;;;4990742;28;20208;-71
2022/01/28 11:25:35;;;;;;;6.30;1.10;;;0.20;96.30;;;;;;4974156;28;20421;-71
2022/01/28 11:28:09;;;;;;;6.33;1.97;;;0.10;96.30;;;;;;4971546;28;20421;-72
2022/01/28 11:30:35;;;;;;;9.40;1.70;;;0.10;96.30;;;;;;4973183;28;20445;-70
2022/01/28 11:33:05;;;;;;;9.70;1.90;;;0.10;96.30;;;;;;4971923;28;20472;-71
2022/01/28 11:35:37;;;;;;;18.13;2.40;;;0.30;96.30;;;;;;4979335;28;20928;-70
2022/01/28 11:38:24;;;;;;;5.50;1.93;;;0.50;96.30;;;;;;4992556;28;20416;-70
2022/01/28 11:40:59;;;;;;;11.13;1.87;;;0.70;96.30;;;;;;4992285;28;20446;-71
2022/01/28 11:43:26;;;;;;;11.63;2.30;;;0.70;96.30;;;;;;4996115;28;20792;-70
2022/01/28 11:46:22;;;;;;;17.13;2.87;;;0.90;96.30;;;;;;4995699;28;20459;-71
2022/01/28 11:49:02;;;;;;;16.77;2.63;;;0.90;96.30;;;;;;4991354;28;20471;-70
2022/01/28 11:51:36;;;;;;;10.47;2.23;;;1.00;96.30;;;;;;4995077;28;20436;-71
2022/01/28 11:54:07;;;;;;;12.47;2.70;;;1.20;96.30;;;;;;4996173;28;20868;-70
2022/01/28 11:56:38;;;;;;;25.27;2.20;;;1.20;96.30;;;;;;4996129;28;20746;-70
2022/01/28 11:59:12;;;;;;;16.20;3.10;;;1.20;96.30;;;;;;4995905;28;20420;-70
2022/01/28 12:01:40;;;;;;;11.37;2.43;;;1.10;96.30;;;;;;4995572;28;20539;-70
2022/01/28 12:04:25;;;;;;;7.57;1.73;;;1.10;96.30;;;;;;4980322;28;20496;-72
2022/01/28 12:07:01;;;;;;;24.80;3.40;;;1.20;96.30;;;;;;4995962;28;20409;-71
2022/01/28 12:09:28;;;;;;;11.87;2.30;;;1.10;96.30;;;;;;4987776;28;20929;-71
2022/01/28 12:11:54;;;;;;;10.80;3.00;;;1.10;96.30;;;;;;4992896;28;20812;-71
2022/01/28 12:14:48;;;;;;;15.93;2.73;;;1.10;96.30;;;;;;4994500;28;20412;-70
2022/01/28 12:17:29;;;;;;;19.20;3.10;;;1.10;96.30;;;;;;4994550;28;20186;-71
2022/01/28 12:20:24;;;;;;;18.23;2.07;;;1.00;96.30;;;;;;4995129;28;21006;-71
2022/01/28 12:23:23;;;;;;;15.27;2.10;;;1.00;96.30;;;;;;4995785;28;20447;-70
2022/01/28 12:25:53;;;;;;;12.63;2.67;;;0.90;96.30;;;;;;4995136;28;20913;-71
2022/01/28 12:28:26;;;;;;;17.33;2.50;;;0.90;96.30;;;;;;4995475;28;20412;-72
2022/01/28 12:31:19;;;;;;;17.77;2.90;;;0.90;96.30;;;;;;4995618;28;20428;-71
2022/01/28 12:33:49;;;;;;;16.83;3.00;;;0.90;96.30;;;;;;4991388;28;20548;-72
2022/01/28 12:36:26;;;;;;;29.60;3.10;;;0.90;96.30;;;;;;4981533;28;20501;-72
2022/01/28 12:39:06;;;;;;;16.07;3.03;;;1.00;96.30;;;;;;4975914;28;20783;-71
2022/01/28 12:41:40;;;;;;;13.60;2.60;;;1.10;96.30;;;;;;4974619;28;20469;-72
2022/01/28 12:44:08;;;;;;;19.93;2.40;;;1.10;96.30;;;;;;4978146;28;20428;-72
2022/01/28 12:46:36;;;;;;;17.80;2.80;;;1.10;96.30;;;;;;4992207;28;20524;-72
2022/01/28 12:49:02;;;;;;;15.07;3.27;;;1.20;96.30;;;;;;4995345;28;20401;-71
2022/01/28 12:51:28;;;;;;;14.10;3.90;;;1.20;96.30;;;;;;4995125;28;20475;-73
2022/01/28 12:53:57;;;;;;;15.43;2.53;;;1.10;96.30;;;;;;4993763;28;20459;-72
2022/01/28 12:56:36;;;;;;;9.77;2.37;;;1.10;96.30;;;;;;4994978;28;20181;-71
2022/01/28 12:59:03;;;;;;;14.13;2.60;;;1.10;96.30;;;;;;4993171;28;20425;-71
2022/01/28 13:01:29;;;;;;;16.73;3.33;;;1.10;96.30;;;;;;4993633;28;20479;-72
2022/01/28 13:04:06;;;;;;;13.03;2.70;;;1.10;96.30;;;;;;4995059;28;20543;-72
2022/01/28 13:09:22;;;;;;;14.20;2.30;;;1.10;96.30;;;;;;4995123;28;20412;-71
2022/01/28 13:11:50;;;;;;;18.30;2.60;;;1.10;96.30;;;;;;4994772;28;20811;-72
2022/01/28 13:14:20;;;;;;;12.33;2.93;;;1.20;96.30;;;;;;4994620;28;20417;-72
2022/01/28 13:16:48;;;;;;;11.87;2.10;;;1.20;96.30;;;;;;4994769;28;20451;-72
2022/01/28 13:19:14;;;;;;;17.23;2.50;;;1.20;96.30;;;;;;4984286;28;20472;-72
2022/01/28 13:21:44;;;;;;;21.30;3.10;;;1.20;96.30;;;;;;4975129;28;20457;-74
2022/01/28 13:24:27;;;;;;;11.73;2.60;;;1.20;96.30;;;;;;4975205;28;20448;-73
2022/01/28 13:27:07;;;;;;;18.47;3.67;;;1.30;96.30;;;;;;4975383;28;20894;-74
2022/01/28 13:29:38;;;;;;;22.07;4.33;;;1.40;96.30;;;;;;4975023;28;20429;-74
2022/01/28 13:32:10;;;;;;;20.63;2.63;;;1.40;96.30;;;;;;4991141;28;20820;-73
2022/01/28 13:34:52;;;;;;;12.87;2.27;;;1.40;96.30;;;;;;4994282;28;20475;-73
2022/01/28 13:37:40;;;;;;;20.50;2.80;;;1.40;96.30;;;;;;4974996;28;20409;-73
2022/01/28 13:40:18;;;;;;;10.60;2.90;;;1.40;96.30;;;;;;4979919;28;20943;-73
2022/01/28 13:43:06;;;;;;;13.93;3.10;;;1.40;96.30;;;;;;4994152;28;20831;-73
2022/01/28 13:45:42;;;;;;;7.30;1.80;;;1.40;96.30;;;;;;4994044;28;20396;-74
2022/01/28 13:48:14;;;;;;;11.50;2.23;;;1.40;96.30;;;;;;4994205;28;20408;-73
2022/01/28 13:50:42;;;;;;;22.00;3.23;;;1.30;96.30;;;;;;4992843;28;20793;-76
2022/01/28 13:55:59;;;;;;;19.23;2.47;;;1.30;96.30;;;;;;4994097;28;20463;-75
2022/01/28 13:58:26;;;;;;;14.03;2.63;;;1.40;96.30;;;;;;4994032;28;20908;-73
2022/01/28 14:00:53;;;;;;;23.73;2.50;;;1.40;96.30;;;;;;4993859;28;20921;-73
2022/01/28 14:03:27;;;;;;;12.47;2.60;;;1.40;96.30;;;;;;4993829;28;20448;-73
2022/01/28 14:05:57;;;;;;;14.13;2.43;;;1.40;96.30;;;;;;4993226;28;20385;-73
2022/01/28 14:08:39;;;;;;;16.80;2.63;;;1.30;96.30;;;;;;4993835;28;20393;-73
2022/01/28 14:11:37;;;;;;;10.50;3.10;;;1.40;96.30;;;;;;4993557;28;20801;-73
2022/01/28 14:14:17;;;;;;;8.93;2.03;;;1.30;96.30;;;;;;4993622;28;20755;-73
2022/01/28 14:17:04;;;;;;;10.03;2.73;;;1.30;96.30;;;;;;4992260;28;20404;-73
2022/01/28 14:19:35;;;;;;;14.90;2.30;;;1.30;96.30;;;;;;4993624;28;20401;-73
2022/01/28 14:22:01;;;;;;;9.17;2.27;;;1.30;96.30;;;;;;4993370;28;20464;-73
2022/01/28 14:24:29;;;;;;;16.07;3.00;;;1.30;96.30;;;;;;4993246;28;21266;-74
2022/01/28 14:27:06;;;;;;;12.93;2.00;;;1.40;96.30;;;;;;4984324;28;20472;-75
2022/01/28 14:32:09;;;;;;;15.00;2.40;;;1.30;96.30;;;;;;4973955;28;20991;-73
2022/01/28 14:34:36;;;;;;;22.17;3.43;;;1.30;96.30;;;;;;4972382;28;20422;-75
2022/01/28 14:37:03;;;;;;;16.07;2.97;;;1.30;96.30;;;;;;4991403;28;20443;-76
2022/01/28 14:39:30;;;;;;;16.73;2.50;;;1.30;96.30;;;;;;4991894;28;20409;-76
2022/01/28 14:42:02;;;;;;;11.90;2.00;;;1.40;96.30;;;;;;4993184;28;20488;-75
2022/01/28 14:44:31;;;;;;;18.87;2.50;;;1.40;96.30;;;;;;4991703;28;20413;-75
2022/01/28 14:46:57;;;;;;;7.63;1.83;;;1.40;96.30;;;;;;4973628;28;21085;-76
2022/01/28 14:49:23;;;;;;;11.93;1.83;;;1.40;96.30;;;;;;4973716;28;20411;-74
2022/01/28 14:51:54;;;;;;;8.60;1.80;;;1.30;96.30;;;;;;4977620;28;20575;-76
2022/01/28 14:54:26;;;;;;;15.13;2.57;;;1.30;96.30;;;;;;4972037;28;20429;-75
2022/01/28 14:56:53;;;;;;;9.27;3.17;;;1.30;96.30;;;;;;4973621;28;20410;-76
2022/01/28 14:59:18;;;;;;;9.73;2.10;;;1.30;96.30;;;;;;4972239;28;20434;-76
2022/01/28 15:01:43;;;;;;;10.70;2.10;;;1.30;96.30;;;;;;4973270;28;20469;-74
2022/01/28 15:04:09;;;;;;;10.60;1.97;;;1.40;96.30;;;;;;4973240;28;20558;-76
2022/01/28 15:06:34;;;;;;;12.37;2.50;;;1.30;96.30;;;;;;4973202;28;20243;-75
2022/01/28 15:09:02;;;;;;;12.80;2.20;;;1.30;96.30;;;;;;4977327;28;20181;-75
2022/01/28 15:11:47;;;;;;;10.33;2.00;;;1.30;96.30;;;;;;4992650;28;20674;-76
2022/01/28 15:14:15;;;;;;;10.33;2.13;;;1.30;96.30;;;;;;4992681;28;20777;-75
2022/01/28 15:16:41;;;;;;;16.07;2.33;;;1.30;96.30;;;;;;4990432;28;20417;-75
2022/01/28 15:19:08;;;;;;;13.53;2.43;;;1.30;96.30;;;;;;4992407;28;20911;-76
2022/01/28 15:21:34;;;;;;;8.93;2.07;;;1.40;96.30;;;;;;4992565;28;20463;-75
2022/01/28 15:24:00;;;;;;;10.23;1.70;;;1.30;96.30;;;;;;4991372;28;20417;-75
2022/01/28 15:26:25;;;;;;;13.97;2.70;;;1.30;96.30;;;;;;4992241;28;20411;-74
2022/01/28 15:29:01;;;;;;;11.87;2.17;;;1.30;96.30;;;;;;4992200;28;20186;-74
2022/01/28 15:36:55;;;;;;;21.83;3.90;;;1.30;96.30;;;;;;4991089;28;20424;-75
2022/01/28 15:39:20;;;;;;;11.33;2.17;;;1.30;96.30;;;;;;4988544;28;20444;-75
2022/01/28 15:41:46;;;;;;;6.77;1.83;;;1.30;96.30;;;;;;4972848;28;20249;-75
2022/01/28 15:44:12;;;;;;;17.07;3.17;;;1.20;96.30;;;;;;4973101;28;20178;-74
2022/01/28 15:46:37;;;;;;;5.93;1.43;;;1.20;96.30;;;;;;4972797;28;20202;-75
2022/01/28 15:49:04;;;;;;;15.00;3.27;;;1.10;96.30;;;;;;4973022;28;20167;-74
2022/01/28 15:51:30;;;;;;;15.70;2.40;;;1.00;96.30;;;;;;4974832;28;20189;-75
2022/01/28 15:53:55;;;;;;;21.20;3.70;;;1.00;96.30;;;;;;4991228;28;20511;-74
2022/01/28 15:56:21;;;;;;;13.47;2.20;;;0.90;96.30;;;;;;4991963;28;20182;-75
2022/01/28 15:58:46;;;;;;;16.70;2.80;;;0.90;96.30;;;;;;4992523;28;20582;-73
2022/01/28 16:01:12;;;;;;;13.13;3.03;;;0.90;96.30;;;;;;4992224;28;20256;-73
2022/01/28 16:03:37;;;;;;;11.07;2.13;;;0.90;96.30;;;;;;4991139;28;20181;-73
2022/01/28 16:06:03;;;;;;;8.90;2.77;;;0.90;96.30;;;;;;4992125;28;20170;-72
2022/01/28 16:08:28;;;;;;;15.60;2.67;;;0.90;96.30;;;;;;4992318;28;20170;-73
2022/01/28 16:19:00;;;;;;;19.60;3.50;;;0.90;96.30;;;;;;4992192;28;20491;-72
2022/01/28 16:21:26;;;;;;;11.33;2.67;;;0.90;96.30;;;;;;4990778;28;20468;-72
2022/01/28 16:23:52;;;;;;;21.27;2.87;;;0.90;96.30;;;;;;4992161;28;20408;-75
2022/01/28 16:26:18;;;;;;;12.70;2.80;;;0.90;96.30;;;;;;4991824;28;20409;-75
2022/01/28 16:28:43;;;;;;;16.23;3.83;;;0.90;96.30;;;;;;4993025;28;20661;-75
2022/01/28 16:31:09;;;;;;;18.70;2.97;;;0.90;96.30;;;;;;4994265;28;20209;-74
2022/01/28 16:33:34;;;;;;;13.73;3.20;;;0.90;96.30;;;;;;4995545;28;20521;-74
2022/01/28 16:36:00;;;;;;;18.53;3.50;;;1.00;96.30;;;;;;4984636;28;20182;-74
2022/01/28 16:38:26;;;;;;;15.23;2.90;;;1.00;96.30;;;;;;4976047;28;20178;-74
2022/01/28 16:40:52;;;;;;;12.73;2.77;;;1.00;96.30;;;;;;4975913;28;20198;-75
2022/01/28 16:43:21;;;;;;;11.47;2.30;;;1.00;96.30;;;;;;4974894;28;20239;-74
2022/01/28 16:45:48;;;;;;;12.60;2.70;;;1.00;96.30;;;;;;4974447;28;20446;-75
2022/01/28 16:48:14;;;;;;;13.13;3.07;;;1.00;96.30;;;;;;4975744;28;20429;-74
2022/01/28 16:50:43;;;;;;;9.83;2.03;;;1.10;96.30;;;;;;4990806;28;20451;-74
2022/01/28 16:53:10;;;;;;;18.63;2.93;;;1.10;96.30;;;;;;4995174;28;20421;-75
2022/01/28 16:55:36;;;;;;;17.60;2.33;;;1.10;96.30;;;;;;4994950;28;20826;-74
2022/01/28 16:58:02;;;;;;;9.67;2.77;;;1.10;96.30;;;;;;4995061;28;20415;-75
2022/01/28 17:00:27;;;;;;;12.57;2.47;;;1.00;96.30;;;;;;4993622;28;20429;-76
2022/01/28 17:02:53;;;;;;;9.87;2.40;;;1.00;96.30;;;;;;4993601;28;20209;-75
2022/01/28 17:05:20;;;;;;;14.17;2.00;;;1.00;96.30;;;;;;4994772;28;20220;-75
2022/01/28 17:07:46;;;;;;;21.57;3.30;;;1.00;96.30;;;;;;4994955;28;20401;-74
2022/01/28 17:10:32;;;;;;;7.40;1.57;;;1.00;96.30;;;;;;4994895;28;20404;-74
2022/01/28 17:12:57;;;;;;;10.60;2.83;;;1.10;96.30;;;;;;4978918;28;20445;-76
2022/01/28 17:15:23;;;;;;;10.83;2.47;;;1.10;96.30;;;;;;4975842;28;20420;-73
2022/01/28 17:17:49;;;;;;;6.73;2.37;;;1.10;96.30;;;;;;4974377;28;20185;-72
2022/01/28 17:20:15;;;;;;;9.50;1.90;;;1.20;96.30;;;;;;4975371;28;20181;-73
2022/01/28 17:25:16;;;;;;;6.73;1.70;;;1.20;96.30;;;;;;5145838;23;20233;-74
2022/01/28 17:27:42;;;;;;;19.57;2.57;;;1.20;96.30;;;;;;4994583;28;20913;-75
2022/01/28 17:30:08;;;;;;;13.10;3.40;;;1.10;96.30;;;;;;4993295;28;20459;-74
2022/01/28 17:32:35;;;;;;;17.90;2.97;;;1.00;96.30;;;;;;4994338;28;20635;-74
2022/01/28 17:35:01;;;;;;;9.00;2.53;;;1.00;96.30;;;;;;4994091;28;20419;-74
2022/01/28 17:37:27;;;;;;;16.40;2.40;;;1.00;96.30;;;;;;4994311;28;20488;-74
2022/01/28 17:39:57;;;;;;;18.57;3.47;;;1.00;96.30;;;;;;4993577;28;20496;-74
2022/01/28 17:42:24;;;;;;;4.27;1.30;;;1.00;96.30;;;;;;4994089;28;20476;-75
2022/01/28 17:44:49;;;;;;;16.50;2.27;;;1.00;96.30;;;;;;4981538;28;20492;-74
2022/01/28 17:47:15;;;;;;;11.13;2.63;;;1.00;96.30;;;;;;4974545;28;20914;-74
2022/01/28 17:49:40;;;;;;;16.47;4.30;;;1.10;96.30;;;;;;4974799;28;20563;-75
2022/01/28 17:52:06;;;;;;;10.73;2.30;;;1.00;96.30;;;;;;4974570;28;20198;-74
2022/01/28 17:54:31;;;;;;;14.93;2.77;;;1.10;96.30;;;;;;4974172;28;20178;-74
2022/01/28 17:56:58;;;;;;;12.63;2.30;;;1.00;96.30;;;;;;4974614;28;20183;-74
2022/01/28 17:59:24;;;;;;;13.30;2.70;;;1.00;96.30;;;;;;4980813;28;20184;-73
2022/01/28 18:01:49;;;;;;;13.13;2.70;;;1.10;96.30;;;;;;4982028;28;20452;-74
2022/01/28 18:04:16;;;;;;;12.50;3.00;;;1.10;96.30;;;;;;4981848;28;20538;-73
2022/01/28 18:06:42;;;;;;;11.03;1.93;;;1.00;96.30;;;;;;4989337;28;20196;-73
2022/01/28 18:09:07;;;;;;;7.30;1.73;;;1.00;96.30;;;;;;4987656;28;20496;-74
2022/01/28 18:11:33;;;;;;;10.97;2.43;;;1.00;96.30;;;;;;4981357;28;20255;-73
2022/01/28 18:13:58;;;;;;;10.00;2.73;;;1.00;96.30;;;;;;4990279;28;20255;-73
2022/01/28 18:16:24;;;;;;;8.10;2.03;;;0.90;96.30;;;;;;4993204;28;20272;-73